createdAt,value
2019-02-19T00:00:59.110Z,1019.52
2019-02-19T00:01:58.906Z,1019.47
2019-02-19T00:03:00.625Z,1019.47
2019-02-19T00:03:59.224Z,1019.48
2019-02-19T00:04:59.027Z,1019.48
2019-02-19T00:05:59.154Z,1019.52
2019-02-19T00:06:59.042Z,1019.54
2019-02-19T00:07:59.046Z,1019.55
2019-02-19T00:08:59.030Z,1019.55
2019-02-19T00:09:59.107Z,1019.54
2019-02-19T00:10:59.132Z,1019.55
2019-02-19T00:11:59.664Z,1019.54
2019-02-19T00:12:58.978Z,1019.58
2019-02-19T00:13:58.883Z,1019.57
2019-02-19T00:15:08.613Z,1019.55
2019-02-19T00:15:59.101Z,1019.57
2019-02-19T00:16:59.006Z,1019.55
2019-02-19T00:17:58.969Z,1019.56
2019-02-19T00:18:58.912Z,1019.59
2019-02-19T00:19:59.026Z,1019.59
2019-02-19T00:20:59.135Z,1019.54
2019-02-19T00:21:58.878Z,1019.57
2019-02-19T00:22:59.150Z,1019.54
2019-02-19T00:23:58.967Z,1019.59
2019-02-19T00:24:59.065Z,1019.57
2019-02-19T00:25:59.070Z,1019.53
2019-02-19T00:26:59.072Z,1019.55
2019-02-19T00:27:58.823Z,1019.57
2019-02-19T00:28:58.952Z,1019.53
2019-02-19T00:29:58.987Z,1019.52
2019-02-19T00:30:58.998Z,1019.5
2019-02-19T00:32:00.580Z,1019.52
2019-02-19T00:32:58.555Z,1019.52
2019-02-19T00:33:59.618Z,1019.51
2019-02-19T00:34:59.023Z,1019.51
2019-02-19T00:35:59.194Z,1019.53
2019-02-19T00:36:58.812Z,1019.53
2019-02-19T00:37:58.758Z,1019.56
2019-02-19T00:39:00.605Z,1019.51
2019-02-19T00:39:58.955Z,1019.56
2019-02-19T00:40:59.597Z,1019.52
2019-02-19T00:41:58.967Z,1019.56
2019-02-19T00:42:59.082Z,1019.57
2019-02-19T00:43:58.986Z,1019.61
2019-02-19T00:44:58.944Z,1019.52
2019-02-19T00:45:59.009Z,1019.57
2019-02-19T00:46:59.023Z,1019.57
2019-02-19T00:47:58.701Z,1019.58
2019-02-19T00:48:58.689Z,1019.58
2019-02-19T00:49:59.017Z,1019.56
2019-02-19T00:50:58.699Z,1019.58
2019-02-19T00:52:00.553Z,1019.56
2019-02-19T00:52:58.948Z,1019.57
2019-02-19T00:53:59.050Z,1019.59
2019-02-19T00:55:00.305Z,1019.6
2019-02-19T00:55:59.467Z,1019.57
2019-02-19T00:56:58.878Z,1019.65
2019-02-19T00:57:58.717Z,1019.63
2019-02-19T00:58:58.688Z,1019.62
2019-02-19T00:59:58.930Z,1019.66
2019-02-19T01:00:58.718Z,1019.68
2019-02-19T01:01:59.014Z,1019.68
2019-02-19T01:02:58.716Z,1019.66
2019-02-19T01:03:58.916Z,1019.71
2019-02-19T01:04:59.128Z,1019.72
2019-02-19T01:05:58.924Z,1019.71
2019-02-19T01:06:58.722Z,1019.65
2019-02-19T01:07:59.038Z,1019.66
2019-02-19T01:08:59.556Z,1019.67
2019-02-19T01:09:58.697Z,1019.69
2019-02-19T01:10:58.802Z,1019.68
2019-02-19T01:12:00.525Z,1019.68
2019-02-19T01:12:59.086Z,1019.66
2019-02-19T01:13:58.695Z,1019.63
2019-02-19T01:14:58.989Z,1019.65
2019-02-19T01:15:59.278Z,1019.61
2019-02-19T01:16:59.829Z,1019.6
2019-02-19T01:18:00.506Z,1019.58
2019-02-19T01:18:58.650Z,1019.58
2019-02-19T01:19:59.016Z,1019.57
2019-02-19T01:20:59.009Z,1019.57
2019-02-19T01:21:59.030Z,1019.61
2019-02-19T01:22:59.234Z,1019.61
2019-02-19T01:23:58.738Z,1019.62
2019-02-19T01:24:59.131Z,1019.55
2019-02-19T01:25:59.057Z,1019.54
2019-02-19T01:26:58.645Z,1019.55
2019-02-19T01:27:59.077Z,1019.52
2019-02-19T01:28:58.981Z,1019.49
2019-02-19T01:29:59.007Z,1019.46
2019-02-19T01:30:58.740Z,1019.5
2019-02-19T01:31:58.890Z,1019.47
2019-02-19T01:32:58.676Z,1019.48
2019-02-19T01:33:59.012Z,1019.45
2019-02-19T01:34:59.026Z,1019.44
2019-02-19T01:35:58.648Z,1019.48
2019-02-19T01:36:59.750Z,1019.41
2019-02-19T01:37:59.842Z,1019.4
2019-02-19T01:38:59.566Z,1019.41
2019-02-19T01:39:58.763Z,1019.4
2019-02-19T01:40:58.657Z,1019.39
2019-02-19T01:41:58.636Z,1019.39
2019-02-19T01:42:58.974Z,1019.41
2019-02-19T01:43:58.698Z,1019.34
2019-02-19T01:44:58.748Z,1019.37
2019-02-19T01:45:58.449Z,1019.36
2019-02-19T01:46:58.697Z,1019.35
2019-02-19T01:47:58.901Z,1019.35
2019-02-19T01:48:58.601Z,1019.35
2019-02-19T01:49:59.735Z,1019.37
2019-02-19T01:50:59.133Z,1019.33
2019-02-19T01:51:59.018Z,1019.33
2019-02-19T01:52:58.646Z,1019.31
2019-02-19T01:53:59.133Z,1019.37
2019-02-19T01:54:58.948Z,1019.33
2019-02-19T01:55:58.949Z,1019.3
2019-02-19T01:56:58.954Z,1019.3
2019-02-19T01:58:00.452Z,1019.3
2019-02-19T01:58:58.593Z,1019.33
2019-02-19T01:59:59.237Z,1019.36
2019-02-19T02:00:58.577Z,1019.36
2019-02-19T02:01:58.708Z,1019.36
2019-02-19T02:02:58.912Z,1019.35
2019-02-19T02:03:58.995Z,1019.38
2019-02-19T02:04:59.014Z,1019.33
2019-02-19T02:05:59.123Z,1019.35
2019-02-19T02:06:58.702Z,1019.35
2019-02-19T02:07:58.933Z,1019.36
2019-02-19T02:09:00.424Z,1019.36
2019-02-19T02:09:58.672Z,1019.34
2019-02-19T02:10:58.575Z,1019.32
2019-02-19T02:11:59.062Z,1019.32
2019-02-19T02:12:58.652Z,1019.31
2019-02-19T02:13:58.647Z,1019.29
2019-02-19T02:14:58.622Z,1019.31
2019-02-19T02:15:58.680Z,1019.33
2019-02-19T02:16:58.984Z,1019.29
2019-02-19T02:17:58.563Z,1019.3
2019-02-19T02:18:58.663Z,1019.34
2019-02-19T02:19:58.940Z,1019.34
2019-02-19T02:20:59.631Z,1019.33
2019-02-19T02:21:59.039Z,1019.33
2019-02-19T02:22:58.745Z,1019.29
2019-02-19T02:23:58.749Z,1019.33
2019-02-19T02:24:58.547Z,1019.27
2019-02-19T02:25:58.839Z,1019.3
2019-02-19T02:26:58.639Z,1019.31
2019-02-19T02:27:58.953Z,1019.34
2019-02-19T02:29:00.438Z,1019.29
2019-02-19T02:29:59.263Z,1019.28
2019-02-19T02:30:58.796Z,1019.31
2019-02-19T02:31:58.705Z,1019.3
2019-02-19T02:32:58.890Z,1019.32
2019-02-19T02:33:58.798Z,1019.33
2019-02-19T02:34:58.897Z,1019.28
2019-02-19T02:35:58.596Z,1019.29
2019-02-19T02:36:58.554Z,1019.31
2019-02-19T02:37:59.356Z,1019.29
2019-02-19T02:38:58.942Z,1019.32
2019-02-19T02:39:58.667Z,1019.36
2019-02-19T02:40:58.681Z,1019.39
2019-02-19T02:41:58.662Z,1019.31
2019-02-19T02:42:59.155Z,1019.39
2019-02-19T02:43:58.505Z,1019.32
2019-02-19T02:44:58.775Z,1019.35
2019-02-19T02:45:58.992Z,1019.39
2019-02-19T02:46:58.577Z,1019.41
2019-02-19T02:48:00.396Z,1019.4
2019-02-19T02:48:58.987Z,1019.39
2019-02-19T02:49:58.351Z,1019.4
2019-02-19T02:50:58.513Z,1019.39
2019-02-19T02:51:58.707Z,1019.4
2019-02-19T02:52:58.808Z,1019.48
2019-02-19T02:53:58.627Z,1019.47
2019-02-19T02:54:59.031Z,1019.46
2019-02-19T02:55:58.711Z,1019.45
2019-02-19T02:56:58.788Z,1019.44
2019-02-19T02:57:58.844Z,1019.43
2019-02-19T02:58:58.856Z,1019.47
2019-02-19T02:59:58.712Z,1019.42
2019-02-19T03:01:00.389Z,1019.39
2019-02-19T03:01:58.732Z,1019.38
2019-02-19T03:02:58.489Z,1019.37
2019-02-19T03:03:59.100Z,1019.39
2019-02-19T03:04:59.365Z,1019.38
2019-02-19T03:05:58.893Z,1019.37
2019-02-19T03:06:58.599Z,1019.35
2019-02-19T03:07:59.022Z,1019.34
2019-02-19T03:08:58.317Z,1019.36
2019-02-19T03:09:58.938Z,1019.37
2019-02-19T03:10:58.841Z,1019.39
2019-02-19T03:11:59.363Z,1019.44
2019-02-19T03:12:58.554Z,1019.44
2019-02-19T03:13:58.553Z,1019.41
2019-02-19T03:14:58.519Z,1019.39
2019-02-19T03:16:02.865Z,1019.39
2019-02-19T03:17:00.361Z,1019.38
2019-02-19T03:17:58.586Z,1019.37
2019-02-19T03:18:58.546Z,1019.46
2019-02-19T03:19:58.782Z,1019.4
2019-02-19T03:20:58.656Z,1019.47
2019-02-19T03:21:58.580Z,1019.49
2019-02-19T03:22:58.621Z,1019.49
2019-02-19T03:23:58.487Z,1019.47
2019-02-19T03:24:58.466Z,1019.5
2019-02-19T03:25:59.029Z,1019.53
2019-02-19T03:26:59.756Z,1019.49
2019-02-19T03:27:58.511Z,1019.5
2019-02-19T03:28:58.463Z,1019.45
2019-02-19T03:29:58.451Z,1019.45
2019-02-19T03:30:59.173Z,1019.44
2019-02-19T03:31:58.975Z,1019.46
2019-02-19T03:32:58.690Z,1019.46
2019-02-19T03:34:00.307Z,1019.42
2019-02-19T03:34:58.783Z,1019.43
2019-02-19T03:35:59.344Z,1019.43
2019-02-19T03:36:58.501Z,1019.4
2019-02-19T03:37:59.017Z,1019.43
2019-02-19T03:38:58.713Z,1019.47
2019-02-19T03:39:59.208Z,1019.49
2019-02-19T03:40:58.687Z,1019.52
2019-02-19T03:41:58.725Z,1019.48
2019-02-19T03:42:58.732Z,1019.52
2019-02-19T03:43:58.415Z,1019.56
2019-02-19T03:44:58.581Z,1019.55
2019-02-19T03:45:58.651Z,1019.58
2019-02-19T03:46:58.546Z,1019.56
2019-02-19T03:48:00.314Z,1019.6
2019-02-19T03:48:58.768Z,1019.56
2019-02-19T03:49:58.791Z,1019.56
2019-02-19T03:50:58.790Z,1019.55
2019-02-19T03:51:58.419Z,1019.53
2019-02-19T03:52:58.702Z,1019.54
2019-02-19T03:53:58.710Z,1019.58
2019-02-19T03:54:58.606Z,1019.58
2019-02-19T03:55:58.507Z,1019.59
2019-02-19T03:56:58.509Z,1019.56
2019-02-19T03:57:58.472Z,1019.57
2019-02-19T03:58:58.438Z,1019.56
2019-02-19T03:59:58.750Z,1019.56
2019-02-19T04:01:00.268Z,1019.53
2019-02-19T04:01:58.564Z,1019.53
2019-02-19T04:02:59.699Z,1019.5
2019-02-19T04:04:00.248Z,1019.49
2019-02-19T04:04:58.991Z,1019.47
2019-02-19T04:05:58.673Z,1019.51
2019-02-19T04:06:58.602Z,1019.46
2019-02-19T04:07:58.572Z,1019.51
2019-02-19T04:08:59.118Z,1019.53
2019-02-19T04:09:59.217Z,1019.5
2019-02-19T04:10:59.345Z,1019.45
2019-02-19T04:11:59.026Z,1019.46
2019-02-19T04:12:58.728Z,1019.51
2019-02-19T04:13:59.295Z,1019.47
2019-02-19T04:14:58.388Z,1019.49
2019-02-19T04:15:58.745Z,1019.52
2019-02-19T04:17:00.229Z,1019.57
2019-02-19T04:17:58.211Z,1019.56
2019-02-19T04:19:00.266Z,1019.57
2019-02-19T04:19:58.680Z,1019.58
2019-02-19T04:20:58.436Z,1019.56
2019-02-19T04:21:58.524Z,1019.59
2019-02-19T04:23:00.221Z,1019.58
2019-02-19T04:23:58.901Z,1019.53
2019-02-19T04:24:58.906Z,1019.53
2019-02-19T04:25:58.723Z,1019.55
2019-02-19T04:26:58.712Z,1019.55
2019-02-19T04:27:58.365Z,1019.55
2019-02-19T04:28:58.625Z,1019.56
2019-02-19T04:29:59.041Z,1019.52
2019-02-19T04:30:58.203Z,1019.58
2019-02-19T04:32:00.208Z,1019.57
2019-02-19T04:32:58.528Z,1019.57
2019-02-19T04:33:58.461Z,1019.58
2019-02-19T04:34:58.562Z,1019.62
2019-02-19T04:35:58.463Z,1019.59
2019-02-19T04:36:58.518Z,1019.58
2019-02-19T04:38:00.210Z,1019.55
2019-02-19T04:38:58.893Z,1019.56
2019-02-19T04:39:58.544Z,1019.6
2019-02-19T04:40:58.602Z,1019.6
2019-02-19T04:41:58.617Z,1019.6
2019-02-19T04:42:58.355Z,1019.61
2019-02-19T04:43:58.720Z,1019.59
2019-02-19T04:44:58.594Z,1019.62
2019-02-19T04:45:58.937Z,1019.61
2019-02-19T04:46:58.625Z,1019.64
2019-02-19T04:47:59.178Z,1019.63
2019-02-19T04:48:58.474Z,1019.62
2019-02-19T04:50:00.332Z,1019.67
2019-02-19T04:50:58.385Z,1019.62
2019-02-19T04:51:58.983Z,1019.62
2019-02-19T04:52:58.165Z,1019.64
2019-02-19T04:53:58.684Z,1019.59
2019-02-19T04:54:58.602Z,1019.61
2019-02-19T04:55:58.426Z,1019.62
2019-02-19T04:56:58.551Z,1019.6
2019-02-19T04:57:58.440Z,1019.65
2019-02-19T04:58:59.200Z,1019.58
2019-02-19T04:59:58.747Z,1019.59
2019-02-19T05:00:58.547Z,1019.61
2019-02-19T05:01:58.405Z,1019.64
2019-02-19T05:02:58.361Z,1019.66
2019-02-19T05:03:58.381Z,1019.67
2019-02-19T05:05:00.424Z,1019.66
2019-02-19T05:06:00.164Z,1019.63
2019-02-19T05:06:58.424Z,1019.65
2019-02-19T05:07:58.382Z,1019.65
2019-02-19T05:08:58.315Z,1019.68
2019-02-19T05:09:58.565Z,1019.62
2019-02-19T05:10:58.371Z,1019.69
2019-02-19T05:11:58.345Z,1019.69
2019-02-19T05:12:58.510Z,1019.67
2019-02-19T05:13:58.929Z,1019.72
2019-02-19T05:14:58.669Z,1019.73
2019-02-19T05:15:58.527Z,1019.76
2019-02-19T05:16:58.404Z,1019.79
2019-02-19T05:17:58.539Z,1019.82
2019-02-19T05:18:58.347Z,1019.82
2019-02-19T05:19:58.565Z,1019.81
2019-02-19T05:20:58.381Z,1019.81
2019-02-19T05:21:58.124Z,1019.82
2019-02-19T05:22:58.367Z,1019.81
2019-02-19T05:23:58.700Z,1019.82
2019-02-19T05:24:58.598Z,1019.81
2019-02-19T05:25:58.500Z,1019.8
2019-02-19T05:26:58.425Z,1019.77
2019-02-19T05:27:59.160Z,1019.79
2019-02-19T05:28:58.359Z,1019.8
2019-02-19T05:29:58.529Z,1019.79
2019-02-19T05:30:58.474Z,1019.81
2019-02-19T05:31:58.683Z,1019.82
2019-02-19T05:32:58.380Z,1019.84
2019-02-19T05:33:58.435Z,1019.86
2019-02-19T05:34:58.872Z,1019.85
2019-02-19T05:35:58.775Z,1019.87
2019-02-19T05:36:58.391Z,1019.86
2019-02-19T05:37:58.321Z,1019.88
2019-02-19T05:38:59.340Z,1019.85
2019-02-19T05:39:58.484Z,1019.84
2019-02-19T05:40:58.485Z,1019.88
2019-02-19T05:41:58.243Z,1019.85
2019-02-19T05:42:58.437Z,1019.83
2019-02-19T05:43:58.258Z,1019.85
2019-02-19T05:44:58.499Z,1019.87
2019-02-19T05:45:58.369Z,1019.9
2019-02-19T05:46:58.405Z,1019.9
2019-02-19T05:48:00.104Z,1019.84
2019-02-19T05:49:00.099Z,1019.83
2019-02-19T05:49:58.461Z,1019.83
2019-02-19T05:50:58.551Z,1019.85
2019-02-19T05:51:58.328Z,1019.8
2019-02-19T05:52:58.667Z,1019.84
2019-02-19T05:53:58.323Z,1019.83
2019-02-19T05:54:58.334Z,1019.86
2019-02-19T05:55:58.338Z,1019.8
2019-02-19T05:56:59.022Z,1019.85
2019-02-19T05:57:58.248Z,1019.8
2019-02-19T05:58:58.499Z,1019.84
2019-02-19T05:59:59.644Z,1019.84
2019-02-19T06:00:58.531Z,1019.85
2019-02-19T06:01:58.400Z,1019.82
2019-02-19T06:02:58.629Z,1019.86
2019-02-19T06:03:58.217Z,1019.84
2019-02-19T06:04:58.541Z,1019.85
2019-02-19T06:05:58.448Z,1019.9
2019-02-19T06:06:58.262Z,1019.92
2019-02-19T06:07:58.669Z,1019.97
2019-02-19T06:08:59.776Z,1019.94
2019-02-19T06:09:58.602Z,1019.96
2019-02-19T06:10:58.696Z,1019.97
2019-02-19T06:11:58.854Z,1020.01
2019-02-19T06:12:58.318Z,1020.03
2019-02-19T06:13:58.596Z,1020.01
2019-02-19T06:14:58.614Z,1020.02
2019-02-19T06:15:59.192Z,1020.06
2019-02-19T06:16:59.095Z,1020.07
2019-02-19T06:17:58.920Z,1020.07
2019-02-19T06:18:59.753Z,1020.1
2019-02-19T06:19:58.545Z,1020.08
2019-02-19T06:20:58.461Z,1020.12
2019-02-19T06:21:58.327Z,1020.12
2019-02-19T06:22:58.790Z,1020.15
2019-02-19T06:23:58.234Z,1020.12
2019-02-19T06:24:58.343Z,1020.16
2019-02-19T06:25:58.494Z,1020.14
2019-02-19T06:26:58.239Z,1020.11
2019-02-19T06:27:58.568Z,1020.17
2019-02-19T06:28:58.182Z,1020.2
2019-02-19T06:29:58.297Z,1020.19
2019-02-19T06:30:58.338Z,1020.15
2019-02-19T06:31:58.291Z,1020.18
2019-02-19T06:32:58.877Z,1020.17
2019-02-19T06:33:58.290Z,1020.2
2019-02-19T06:34:59.448Z,1020.16
2019-02-19T06:35:58.552Z,1020.2
2019-02-19T06:36:58.399Z,1020.19
2019-02-19T06:37:58.239Z,1020.18
2019-02-19T06:38:58.494Z,1020.23
2019-02-19T06:39:59.912Z,1020.2
2019-02-19T06:40:59.814Z,1020.2
2019-02-19T06:41:58.413Z,1020.22
2019-02-19T06:42:58.169Z,1020.21
2019-02-19T06:43:58.614Z,1020.21
2019-02-19T06:45:00.014Z,1020.23
2019-02-19T06:45:58.391Z,1020.22
2019-02-19T06:47:07.161Z,1020.24
2019-02-19T06:47:58.159Z,1020.28
2019-02-19T06:48:58.431Z,1020.27
2019-02-19T06:49:58.539Z,1020.29
2019-02-19T06:50:58.313Z,1020.31
2019-02-19T06:51:58.316Z,1020.33
2019-02-19T06:52:58.951Z,1020.34
2019-02-19T06:53:58.197Z,1020.35
2019-02-19T06:54:58.385Z,1020.36
2019-02-19T06:55:58.156Z,1020.39
2019-02-19T06:56:58.183Z,1020.39
2019-02-19T06:57:58.412Z,1020.42
2019-02-19T06:58:58.169Z,1020.43
2019-02-19T06:59:58.290Z,1020.44
2019-02-19T07:00:58.616Z,1020.42
2019-02-19T07:01:59.032Z,1020.5
2019-02-19T07:02:58.323Z,1020.44
2019-02-19T07:03:58.546Z,1020.45
2019-02-19T07:04:58.431Z,1020.49
2019-02-19T07:05:59.997Z,1020.5
2019-02-19T07:06:58.230Z,1020.45
2019-02-19T07:07:58.238Z,1020.47
2019-02-19T07:08:58.364Z,1020.44
2019-02-19T07:09:58.525Z,1020.4
2019-02-19T07:10:58.402Z,1020.36
2019-02-19T07:11:59.050Z,1020.3
2019-02-19T07:12:58.393Z,1020.29
2019-02-19T07:13:58.400Z,1020.28
2019-02-19T07:14:58.132Z,1020.28
2019-02-19T07:15:59.431Z,1020.28
2019-02-19T07:16:58.142Z,1020.29
2019-02-19T07:17:58.144Z,1020.29
2019-02-19T07:18:58.537Z,1020.33
2019-02-19T07:19:58.239Z,1020.33
2019-02-19T07:20:58.289Z,1020.39
2019-02-19T07:21:58.440Z,1020.41
2019-02-19T07:22:59.068Z,1020.39
2019-02-19T07:24:04.806Z,1020.38
2019-02-19T07:24:58.318Z,1020.37
2019-02-19T07:25:58.474Z,1020.37
2019-02-19T07:26:58.122Z,1020.39
2019-02-19T07:27:58.377Z,1020.39
2019-02-19T07:28:58.205Z,1020.38
2019-02-19T07:29:58.157Z,1020.43
2019-02-19T07:30:58.137Z,1020.46
2019-02-19T07:31:58.280Z,1020.48
2019-02-19T07:32:58.229Z,1020.52
2019-02-19T07:33:58.253Z,1020.55
2019-02-19T07:34:58.534Z,1020.57
2019-02-19T07:35:58.740Z,1020.58
2019-02-19T07:36:58.753Z,1020.57
2019-02-19T07:37:58.219Z,1020.64
2019-02-19T07:38:58.246Z,1020.63
2019-02-19T07:39:58.383Z,1020.69
2019-02-19T07:40:58.368Z,1020.67
2019-02-19T07:41:58.926Z,1020.74
2019-02-19T07:42:58.097Z,1020.72
2019-02-19T07:43:58.281Z,1020.75
2019-02-19T07:44:59.918Z,1020.7
2019-02-19T07:45:59.624Z,1020.66
2019-02-19T07:46:58.613Z,1020.63
2019-02-19T07:47:58.637Z,1020.62
2019-02-19T07:48:58.240Z,1020.59
2019-02-19T07:49:58.050Z,1020.6
2019-02-19T07:50:58.137Z,1020.6
2019-02-19T07:51:58.332Z,1020.66
2019-02-19T07:52:58.244Z,1020.7
2019-02-19T07:53:58.129Z,1020.71
2019-02-19T07:54:58.205Z,1020.67
2019-02-19T07:55:58.092Z,1020.75
2019-02-19T07:56:58.269Z,1020.73
2019-02-19T07:57:58.150Z,1020.74
2019-02-19T07:58:58.083Z,1020.74
2019-02-19T07:59:58.293Z,1020.77
2019-02-19T08:00:58.046Z,1020.79
2019-02-19T08:01:59.307Z,1020.83
2019-02-19T08:02:58.066Z,1020.86
2019-02-19T08:03:58.209Z,1020.88
2019-02-19T08:04:59.919Z,1020.89
2019-02-19T08:05:58.945Z,1020.87
2019-02-19T08:06:57.885Z,1020.88
2019-02-19T08:07:58.013Z,1020.9
2019-02-19T08:08:58.151Z,1020.91
2019-02-19T08:09:58.316Z,1020.94
2019-02-19T08:10:59.889Z,1020.93
2019-02-19T08:11:58.020Z,1020.99
2019-02-19T08:12:58.126Z,1021
2019-02-19T08:13:59.891Z,1021.01
2019-02-19T08:14:58.435Z,1021.04
2019-02-19T08:15:58.193Z,1021.03
2019-02-19T08:16:58.026Z,1021.05
2019-02-19T08:17:58.410Z,1021.03
2019-02-19T08:18:58.276Z,1021.08
2019-02-19T08:19:58.068Z,1021.11
2019-02-19T08:20:58.155Z,1021.09
2019-02-19T08:21:58.023Z,1021.1
2019-02-19T08:22:58.057Z,1021.18
2019-02-19T08:23:58.045Z,1021.16
2019-02-19T08:24:58.452Z,1021.14
2019-02-19T08:25:58.006Z,1021.18
2019-02-19T08:26:59.584Z,1021.16
2019-02-19T08:27:59.803Z,1021.19
2019-02-19T08:29:13.595Z,1021.23
2019-02-19T08:29:59.100Z,1021.23
2019-02-19T08:30:58.095Z,1021.21
2019-02-19T08:31:58.071Z,1021.19
2019-02-19T08:32:58.309Z,1021.17
2019-02-19T08:33:58.003Z,1021.22
2019-02-19T08:34:58.215Z,1021.21
2019-02-19T08:35:58.398Z,1021.22
2019-02-19T08:36:58.100Z,1021.17
2019-02-19T08:37:59.845Z,1021.22
2019-02-19T08:38:58.493Z,1021.16
2019-02-19T08:39:58.755Z,1021.21
2019-02-19T08:40:58.103Z,1021.21
2019-02-19T08:41:57.827Z,1021.19
2019-02-19T08:42:58.130Z,1021.23
2019-02-19T08:43:58.715Z,1021.23
2019-02-19T08:44:57.996Z,1021.26
2019-02-19T08:45:58.072Z,1021.27
2019-02-19T08:46:58.095Z,1021.25
2019-02-19T08:47:58.277Z,1021.28
2019-02-19T08:48:58.000Z,1021.29
2019-02-19T08:49:58.942Z,1021.35
2019-02-19T08:50:58.521Z,1021.36
2019-02-19T08:51:58.066Z,1021.38
2019-02-19T08:52:58.600Z,1021.39
2019-02-19T08:53:58.233Z,1021.38
2019-02-19T08:54:58.928Z,1021.42
2019-02-19T08:55:58.041Z,1021.41
2019-02-19T08:56:58.257Z,1021.42
2019-02-19T08:57:58.299Z,1021.46
2019-02-19T08:58:58.266Z,1021.5
2019-02-19T08:59:58.289Z,1021.46
2019-02-19T09:00:58.404Z,1021.49
2019-02-19T09:01:58.180Z,1021.53
2019-02-19T09:02:58.037Z,1021.56
2019-02-19T09:03:59.825Z,1021.53
2019-02-19T09:04:58.065Z,1021.54
2019-02-19T09:05:58.211Z,1021.61
2019-02-19T09:06:57.961Z,1021.58
2019-02-19T09:07:58.178Z,1021.52
2019-02-19T09:08:59.804Z,1021.5
2019-02-19T09:09:58.362Z,1021.51
2019-02-19T09:10:58.656Z,1021.54
2019-02-19T09:11:59.679Z,1021.56
2019-02-19T09:12:58.028Z,1021.51
2019-02-19T09:13:58.021Z,1021.52
2019-02-19T09:14:59.787Z,1021.58
2019-02-19T09:15:58.383Z,1021.6
2019-02-19T09:16:59.788Z,1021.63
2019-02-19T09:17:58.019Z,1021.66
2019-02-19T09:18:58.504Z,1021.63
2019-02-19T09:19:59.798Z,1021.66
2019-02-19T09:20:58.011Z,1021.66
2019-02-19T09:21:58.422Z,1021.66
2019-02-19T09:22:58.222Z,1021.69
2019-02-19T09:23:58.699Z,1021.67
2019-02-19T09:24:59.159Z,1021.75
2019-02-19T09:25:58.260Z,1021.74
2019-02-19T09:26:58.068Z,1021.76
2019-02-19T09:27:57.924Z,1021.76
2019-02-19T09:28:58.395Z,1021.77
2019-02-19T09:29:58.065Z,1021.78
2019-02-19T09:30:58.029Z,1021.79
2019-02-19T09:31:58.083Z,1021.83
2019-02-19T09:32:59.764Z,1021.82
2019-02-19T09:33:58.133Z,1021.84
2019-02-19T09:34:59.763Z,1021.85
2019-02-19T09:35:59.761Z,1021.83
2019-02-19T09:36:57.986Z,1021.83
2019-02-19T09:37:58.061Z,1021.87
2019-02-19T09:38:58.745Z,1021.91
2019-02-19T09:39:58.163Z,1021.9
2019-02-19T09:40:58.074Z,1021.88
2019-02-19T09:41:58.095Z,1021.83
2019-02-19T09:42:58.093Z,1021.8
2019-02-19T09:43:58.052Z,1021.74
2019-02-19T09:44:58.487Z,1021.74
2019-02-19T09:45:59.258Z,1021.71
2019-02-19T09:46:58.955Z,1021.74
2019-02-19T09:48:01.732Z,1021.74
2019-02-19T09:48:58.293Z,1021.76
2019-02-19T09:49:58.210Z,1021.76
2019-02-19T09:50:58.147Z,1021.75
2019-02-19T09:51:57.914Z,1021.74
2019-02-19T09:53:00.531Z,1021.77
2019-02-19T09:53:59.723Z,1021.77
2019-02-19T09:54:59.447Z,1021.81
2019-02-19T09:55:58.247Z,1021.82
2019-02-19T09:56:58.250Z,1021.82
2019-02-19T09:57:59.743Z,1021.83
2019-02-19T09:58:58.276Z,1021.82
2019-02-19T09:59:58.637Z,1021.83
2019-02-19T10:00:58.067Z,1021.84
2019-02-19T10:01:58.277Z,1021.9
2019-02-19T10:02:58.181Z,1021.88
2019-02-19T10:03:58.636Z,1021.91
2019-02-19T10:04:58.001Z,1021.92
2019-02-19T10:05:57.983Z,1021.88
2019-02-19T10:06:59.715Z,1021.93
2019-02-19T10:07:58.226Z,1021.89
2019-02-19T10:08:59.544Z,1021.89
2019-02-19T10:09:58.238Z,1021.92
2019-02-19T10:10:58.131Z,1021.92
2019-02-19T10:11:58.150Z,1021.99
2019-02-19T10:12:58.033Z,1022.02
2019-02-19T10:13:58.036Z,1022.02
2019-02-19T10:14:58.003Z,1022.04
2019-02-19T10:15:59.291Z,1022
2019-02-19T10:16:57.934Z,1022.04
2019-02-19T10:17:57.954Z,1022.06
2019-02-19T10:18:58.891Z,1022.07
2019-02-19T10:19:58.050Z,1022.06
2019-02-19T10:20:59.897Z,1022.06
2019-02-19T10:21:58.106Z,1022
2019-02-19T10:22:57.945Z,1021.92
2019-02-19T10:23:58.405Z,1021.95
2019-02-19T10:24:57.832Z,1021.98
2019-02-19T10:25:58.240Z,1021.94
2019-02-19T10:26:58.002Z,1021.9
2019-02-19T10:27:57.958Z,1021.88
2019-02-19T10:28:58.162Z,1021.83
2019-02-19T10:29:58.259Z,1021.8
2019-02-19T10:30:57.996Z,1021.75
2019-02-19T10:31:58.067Z,1021.77
2019-02-19T10:32:57.656Z,1021.77
2019-02-19T10:33:58.183Z,1021.83
2019-02-19T10:34:58.105Z,1021.86
2019-02-19T10:35:58.084Z,1021.97
2019-02-19T10:36:59.312Z,1022.01
2019-02-19T10:37:59.140Z,1022.09
2019-02-19T10:38:58.217Z,1022.13
2019-02-19T10:39:58.117Z,1022.19
2019-02-19T10:40:57.998Z,1022.2
2019-02-19T10:41:58.342Z,1022.2
2019-02-19T10:42:58.038Z,1022.22
2019-02-19T10:43:58.978Z,1022.2
2019-02-19T10:44:58.263Z,1022.2
2019-02-19T10:45:58.264Z,1022.17
2019-02-19T10:46:57.963Z,1022.21
2019-02-19T10:47:58.170Z,1022.26
2019-02-19T10:48:59.713Z,1022.24
2019-02-19T10:49:58.092Z,1022.26
2019-02-19T10:50:58.194Z,1022.29
2019-02-19T10:51:58.939Z,1022.26
2019-02-19T10:52:57.950Z,1022.23
2019-02-19T10:53:57.997Z,1022.25
2019-02-19T10:54:58.023Z,1022.26
2019-02-19T10:55:58.026Z,1022.26
2019-02-19T10:56:58.062Z,1022.26
2019-02-19T10:57:57.965Z,1022.25
2019-02-19T10:58:58.743Z,1022.28
2019-02-19T10:59:57.978Z,1022.27
2019-02-19T11:00:59.628Z,1022.24
2019-02-19T11:01:58.465Z,1022.25
2019-02-19T11:02:57.912Z,1022.23
2019-02-19T11:03:59.627Z,1022.17
2019-02-19T11:04:57.798Z,1022.14
2019-02-19T11:05:57.902Z,1022.18
2019-02-19T11:06:58.115Z,1022.16
2019-02-19T11:07:57.997Z,1022.15
2019-02-19T11:08:58.232Z,1022.15
2019-02-19T11:09:58.120Z,1022.18
2019-02-19T11:10:58.027Z,1022.2
2019-02-19T11:11:58.294Z,1022.21
2019-02-19T11:12:58.047Z,1022.21
2019-02-19T11:13:58.050Z,1022.2
2019-02-19T11:14:58.045Z,1022.13
2019-02-19T11:15:57.963Z,1022.18
2019-02-19T11:16:57.822Z,1022.14
2019-02-19T11:17:58.785Z,1022.16
2019-02-19T11:18:57.779Z,1022.14
2019-02-19T11:19:59.003Z,1022.11
2019-02-19T11:20:58.998Z,1022.15
2019-02-19T11:21:59.597Z,1022.13
2019-02-19T11:22:58.884Z,1022.15
2019-02-19T11:23:58.120Z,1022.18
2019-02-19T11:24:58.012Z,1022.15
2019-02-19T11:25:57.807Z,1022.19
2019-02-19T11:26:58.033Z,1022.14
2019-02-19T11:27:59.590Z,1022.12
2019-02-19T11:28:59.590Z,1022.1
2019-02-19T11:29:58.823Z,1022.07
2019-02-19T11:30:57.758Z,1022.1
2019-02-19T11:31:58.161Z,1022.07
2019-02-19T11:32:57.866Z,1022.12
2019-02-19T11:33:57.998Z,1022.08
2019-02-19T11:34:57.976Z,1022.08
2019-02-19T11:35:58.086Z,1022.07
2019-02-19T11:36:57.880Z,1022.06
2019-02-19T11:37:59.025Z,1022.07
2019-02-19T11:38:57.871Z,1022.03
2019-02-19T11:39:59.592Z,1022.04
2019-02-19T11:40:58.018Z,1022.03
2019-02-19T11:41:59.048Z,1022.01
2019-02-19T11:42:59.585Z,1022.01
2019-02-19T11:43:59.569Z,1022.01
2019-02-19T11:44:58.168Z,1022.07
2019-02-19T11:45:58.725Z,1022.03
2019-02-19T11:46:57.553Z,1022.05
2019-02-19T11:47:57.559Z,1022.04
2019-02-19T11:48:57.743Z,1022.04
2019-02-19T11:49:57.999Z,1022.06
2019-02-19T11:50:57.991Z,1022.06
2019-02-19T11:51:58.023Z,1022.08
2019-02-19T11:52:58.002Z,1022.03
2019-02-19T11:53:58.830Z,1022.09
2019-02-19T11:54:57.764Z,1022.03
2019-02-19T11:55:58.536Z,1022.01
2019-02-19T11:56:57.768Z,1021.99
2019-02-19T11:57:58.029Z,1021.94
2019-02-19T11:58:58.078Z,1021.97
2019-02-19T11:59:57.719Z,1021.91
2019-02-19T12:00:57.758Z,1021.95
2019-02-19T12:01:59.555Z,1021.92
2019-02-19T12:02:58.568Z,1021.95
2019-02-19T12:03:57.526Z,1021.98
2019-02-19T12:04:59.536Z,1021.96
2019-02-19T12:05:58.093Z,1022
2019-02-19T12:06:57.728Z,1022.01
2019-02-19T12:07:57.998Z,1022.02
2019-02-19T12:08:57.760Z,1022.02